Time;durP1;ratioP1;P1;durP2;ratioP2;P2;SDS_P1;SDS_P2;PMS_P1;PMS_P2;Temp;Humidity;BMP_temperature;BMP_pressure;BME280_temperature;BME280_humidity;BME280_pressure;Samples;Min_cycle;Max_cycle;Signal;HPM_P1;HPM_P2
2022/03/02 00:01:54;;;;;;;14.25;6.25;;;;;;;-2.27;69.88;95291.88;4974180;28;20621;-84
2022/03/02 00:04:20;;;;;;;13.63;6.70;;;;;;;-2.34;69.69;95288.34;4958296;29;20054;-83
2022/03/02 00:06:45;;;;;;;11.90;6.30;;;;;;;-2.33;69.21;95279.69;4958401;29;20034;-83
2022/03/02 00:09:11;;;;;;;14.57;6.50;;;;;;;-2.30;72.47;95279.34;4959495;28;20389;-84
2022/03/02 00:11:36;;;;;;;10.25;4.97;;;;;;;-2.33;71.97;95279.69;4957624;29;20023;-84
2022/03/02 00:14:03;;;;;;;12.65;6.30;;;;;;;-2.47;72.03;95281.94;4957940;29;20407;-83
2022/03/02 00:16:29;;;;;;;11.70;5.53;;;;;;;-2.55;73.09;95279.41;4958233;29;20340;-84
2022/03/02 00:18:56;;;;;;;12.65;5.32;;;;;;;-2.37;70.74;95275.84;4959288;29;20031;-84
2022/03/02 00:21:22;;;;;;;10.35;5.10;;;;;;;-2.27;69.37;95277.25;4957710;29;20027;-83
2022/03/02 00:23:47;;;;;;;9.80;5.22;;;;;;;-2.06;67.20;95269.97;4959223;28;20027;-83
2022/03/02 00:26:13;;;;;;;10.40;4.35;;;;;;;-2.38;66.66;95263.97;4942008;29;20467;-83
2022/03/02 00:28:38;;;;;;;11.63;4.63;;;;;;;-2.30;65.20;95263.94;4958046;29;20035;-84
2022/03/02 00:31:04;;;;;;;10.52;5.25;;;;;;;-2.33;64.63;95265.09;4973556;28;20043;-83
2022/03/02 00:33:30;;;;;;;9.15;4.70;;;;;;;-2.08;64.61;95266.78;4957702;29;20445;-84
2022/03/02 00:35:55;;;;;;;9.02;4.70;;;;;;;-2.19;63.69;95268.72;4958769;28;20027;-84
2022/03/02 00:38:20;;;;;;;9.43;4.65;;;;;;;-2.08;62.91;95271.91;4959076;28;20337;-84
2022/03/02 00:40:46;;;;;;;10.32;4.70;;;;;;;-1.85;60.82;95269.44;4957714;29;20027;-84
2022/03/02 00:43:12;;;;;;;9.05;4.53;;;;;;;-1.79;60.94;95267.97;4957541;29;20023;-84
2022/03/02 00:45:38;;;;;;;10.77;5.35;;;;;;;-1.97;61.34;95268.19;4958928;28;20042;-84
2022/03/02 00:48:05;;;;;;;14.20;5.40;;;;;;;-2.05;62.21;95267.25;4941765;29;20034;-84
2022/03/02 00:50:31;;;;;;;12.00;5.07;;;;;;;-2.11;64.04;95267.13;4973487;28;20030;-84
2022/03/02 00:52:57;;;;;;;10.93;5.50;;;;;;;-2.31;63.28;95262.34;4973488;28;20117;-84
2022/03/02 00:55:23;;;;;;;10.55;4.70;;;;;;;-2.39;62.99;95264.94;4957648;29;20508;-84
2022/03/02 00:57:49;;;;;;;12.07;4.97;;;;;;;-2.51;66.09;95262.72;4957636;29;20471;-83
2022/03/02 01:00:15;;;;;;;11.65;5.20;;;;;;;-2.68;67.87;95256.78;4957573;29;20027;-84
2022/03/02 01:02:41;;;;;;;13.10;4.90;;;;;;;-2.82;68.92;95260.81;4958738;28;20039;-84
2022/03/02 01:05:07;;;;;;;9.23;4.60;;;;;;;-2.72;66.41;95255.53;4944479;29;20054;-84
2022/03/02 01:07:33;;;;;;;9.02;3.92;;;;;;;-2.49;64.16;95255.66;4965150;28;20031;-84
2022/03/02 01:09:59;;;;;;;7.95;4.18;;;;;;;-2.49;63.06;95250.50;4979859;28;20033;-84
2022/03/02 01:12:25;;;;;;;9.32;3.88;;;;;;;-2.49;64.47;95250.50;4963690;28;20031;-84
2022/03/02 01:14:51;;;;;;;8.18;3.65;;;;;;;-2.66;63.43;95246.38;4963842;29;20023;-84
2022/03/02 01:17:17;;;;;;;8.68;3.70;;;;;;;-2.82;63.61;95242.06;4963667;28;20066;-84
2022/03/02 01:19:43;;;;;;;7.70;3.83;;;;;;;-2.86;67.44;95244.16;4963743;28;20030;-84
2022/03/02 01:22:08;;;;;;;7.38;4.00;;;;;;;-3.01;68.00;95242.25;4963537;28;20042;-84
2022/03/02 01:24:34;;;;;;;7.82;4.40;;;;;;;-3.25;69.53;95234.53;4964722;28;20026;-84
2022/03/02 01:27:01;;;;;;;7.18;3.63;;;;;;;-3.08;67.91;95240.47;4963459;28;20027;-84
2022/03/02 01:29:30;;;;;;;10.85;4.50;;;;;;;-2.99;65.16;95240.31;4948063;29;20051;-84
2022/03/02 01:31:55;;;;;;;8.00;4.22;;;;;;;-2.93;62.72;95240.63;4947883;29;20027;-84
2022/03/02 01:34:21;;;;;;;7.28;3.70;;;;;;;-2.80;60.90;95240.94;4947705;28;20030;-84
2022/03/02 01:36:46;;;;;;;9.32;4.00;;;;;;;-2.75;62.59;95235.34;4949150;29;20086;-84
2022/03/02 01:39:11;;;;;;;8.25;3.80;;;;;;;-2.78;64.32;95239.00;4960177;29;20382;-84
2022/03/02 01:41:37;;;;;;;9.15;3.95;;;;;;;-2.71;60.23;95242.53;4956702;28;20505;-84
2022/03/02 01:44:03;;;;;;;10.63;4.70;;;;;;;-2.70;60.12;95241.59;4942810;29;20102;-84
2022/03/02 01:46:31;;;;;;;11.95;4.82;;;;;;;-2.65;60.55;95235.16;4934698;29;20035;-84
2022/03/02 01:48:57;;;;;;;10.57;4.75;;;;;;;-2.63;60.57;95238.34;4945354;29;20027;-83
2022/03/02 01:51:23;;;;;;;10.80;5.00;;;;;;;-2.60;60.84;95238.00;4944269;29;20028;-83
2022/03/02 01:53:48;;;;;;;10.63;4.97;;;;;;;-2.62;60.33;95239.94;4944314;29;20032;-84
2022/03/02 01:56:14;;;;;;;11.25;4.82;;;;;;;-2.73;62.73;95230.84;4944307;29;20365;-84
2022/03/02 01:58:40;;;;;;;10.05;5.05;;;;;;;-2.78;60.75;95230.53;4960033;28;20031;-84
2022/03/02 02:01:06;;;;;;;7.57;4.13;;;;;;;-2.63;60.46;95233.22;4959870;29;20349;-83
2022/03/02 02:03:33;;;;;;;9.55;4.13;;;;;;;-2.56;59.08;95229.06;4945522;29;20066;-84
2022/03/02 02:06:01;;;;;;;8.82;4.32;;;;;;;-2.50;59.50;95227.59;4944004;29;20122;-83
2022/03/02 02:08:27;;;;;;;8.60;4.25;;;;;;;-2.54;60.14;95229.69;4944081;29;20023;-83
2022/03/02 02:10:55;;;;;;;7.00;4.13;;;;;;;-2.49;60.69;95221.50;4945331;29;20119;-83
2022/03/02 02:13:21;;;;;;;8.02;4.15;;;;;;;-2.46;60.91;95216.81;4944157;29;20027;-83
2022/03/02 02:15:47;;;;;;;9.73;4.53;;;;;;;-2.63;60.24;95222.97;4959116;29;20460;-83
2022/03/02 02:18:12;;;;;;;11.38;5.22;;;;;;;-2.47;60.61;95215.22;4941508;29;20051;-83
2022/03/02 02:20:39;;;;;;;7.82;4.38;;;;;;;-2.42;59.98;95209.59;4941775;29;20027;-83
2022/03/02 02:23:05;;;;;;;12.18;5.15;;;;;;;-2.45;60.11;95213.28;4942022;29;20079;-83
2022/03/02 02:25:31;;;;;;;10.73;4.75;;;;;;;-2.42;59.62;95214.72;4957071;29;20035;-83
2022/03/02 02:27:56;;;;;;;7.78;4.25;;;;;;;-2.63;59.76;95202.44;4940988;29;20032;-83
2022/03/02 02:30:23;;;;;;;7.82;4.45;;;;;;;-2.73;60.83;95213.66;4956659;29;20122;-83
2022/03/02 02:32:48;;;;;;;10.43;5.13;;;;;;;-2.63;60.04;95207.56;4956953;29;20032;-83
2022/03/02 02:35:13;;;;;;;10.00;4.85;;;;;;;-2.71;59.50;95208.38;4956617;29;20138;-83
2022/03/02 02:37:39;;;;;;;10.48;4.50;;;;;;;-2.80;61.25;95205.03;4956852;29;20063;-83
2022/03/02 02:40:17;;;;;;;10.50;4.57;;;;;;;-2.96;62.97;95207.63;4956353;29;20032;-83
2022/03/02 02:42:45;;;;;;;11.80;4.40;;;;;;;-3.14;64.61;95198.34;4956407;29;20028;-83
2022/03/02 02:45:15;;;;;;;12.68;4.85;;;;;;;-3.27;66.83;95209.88;4956160;29;20031;-83
2022/03/02 02:47:41;;;;;;;10.57;5.32;;;;;;;-3.42;69.02;95203.78;4956333;29;20027;-83
2022/03/02 02:50:33;;;;;;;12.75;5.18;;;;;;;-3.41;68.36;95206.16;4941739;29;20448;-83
2022/03/02 02:53:03;;;;;;;9.80;4.78;;;;;;;-3.33;68.16;95202.81;4938469;29;20048;-83
2022/03/02 02:55:29;;;;;;;9.73;4.72;;;;;;;-3.25;66.09;95193.53;4956504;29;20093;-83
2022/03/02 02:57:56;;;;;;;8.07;4.50;;;;;;;-3.27;63.83;95188.56;4941699;29;20039;-83
2022/03/02 03:00:27;;;;;;;9.75;4.70;;;;;;;-3.42;66.66;95183.28;4956349;29;20035;-83
2022/03/02 03:02:54;;;;;;;8.45;3.65;;;;;;;-3.40;65.43;95186.47;4956163;29;20042;-83
2022/03/02 03:05:21;;;;;;;10.15;4.00;;;;;;;-3.42;65.31;95186.63;4940254;29;20031;-83
2022/03/02 03:07:47;;;;;;;7.88;3.97;;;;;;;-3.37;63.62;95181.03;4956340;29;20042;-83
2022/03/02 03:10:14;;;;;;;9.80;4.05;;;;;;;-3.10;61.95;95178.28;4955886;29;20075;-83
2022/03/02 03:12:42;;;;;;;11.35;4.32;;;;;;;-3.12;60.90;95179.25;4956280;29;20027;-83
2022/03/02 03:15:09;;;;;;;8.77;3.47;;;;;;;-2.76;58.36;95169.59;4955926;29;20348;-83
2022/03/02 03:17:35;;;;;;;11.05;3.72;;;;;;;-2.80;58.46;95170.88;4956063;29;20039;-83
2022/03/02 03:20:01;;;;;;;13.63;3.60;;;;;;;-2.86;58.26;95162.88;4955611;29;20035;-83
2022/03/02 03:22:26;;;;;;;6.32;3.00;;;;;;;-2.80;58.20;95163.19;4955709;29;20032;-83
2022/03/02 03:24:53;;;;;;;8.55;3.38;;;;;;;-2.80;57.54;95161.44;4939985;29;20027;-83
2022/03/02 03:27:18;;;;;;;7.32;3.53;;;;;;;-2.85;57.09;95159.34;4955692;29;20039;-83
2022/03/02 03:29:44;;;;;;;6.40;2.92;;;;;;;-2.79;56.14;95159.69;4940911;29;20047;-83
2022/03/02 03:32:09;;;;;;;5.97;2.97;;;;;;;-2.70;55.98;95162.06;4955464;29;20032;-83
2022/03/02 03:34:35;;;;;;;6.78;3.40;;;;;;;-2.54;56.00;95165.53;4955814;29;20126;-83
2022/03/02 03:37:00;;;;;;;5.15;2.63;;;;;;;-2.49;54.80;95162.47;4955720;29;20070;-84
2022/03/02 03:39:26;;;;;;;6.65;3.30;;;;;;;-2.43;54.57;95160.06;4955419;29;20059;-84
2022/03/02 03:41:52;;;;;;;6.82;2.65;;;;;;;-2.14;53.52;95156.06;4940618;29;20040;-84
2022/03/02 03:44:18;;;;;;;5.65;2.67;;;;;;;-2.61;58.36;95157.69;4952840;29;20038;-84
2022/03/02 03:46:43;;;;;;;4.75;2.50;;;;;;;-2.62;56.84;95158.66;4939111;29;20433;-84
2022/03/02 03:49:09;;;;;;;5.85;2.55;;;;;;;-2.96;59.88;95154.56;4934789;29;20040;-84
2022/03/02 03:51:35;;;;;;;10.10;3.40;;;;;;;-3.17;58.68;95147.38;4935883;29;20350;-84
2022/03/02 03:54:00;;;;;;;6.82;2.90;;;;;;;-2.94;57.12;95149.28;4952267;29;20467;-84
2022/03/02 03:56:27;;;;;;;6.15;2.10;;;;;;;-2.89;54.79;95147.00;4952060;29;20051;-84
2022/03/02 03:58:54;;;;;;;6.80;2.47;;;;;;;-2.80;55.36;95152.91;4951796;29;20046;-84
2022/03/02 04:01:19;;;;;;;5.90;2.72;;;;;;;-2.93;55.78;95143.19;4953681;29;20039;-84
2022/03/02 04:03:45;;;;;;;6.30;2.72;;;;;;;-2.97;55.18;95141.91;4939195;28;20405;-84
2022/03/02 04:06:10;;;;;;;6.07;2.80;;;;;;;-2.99;56.48;95137.75;4955211;29;20043;-84
2022/03/02 04:08:36;;;;;;;5.63;2.60;;;;;;;-3.15;55.33;95145.47;4939425;29;20035;-84
2022/03/02 04:11:01;;;;;;;4.63;2.17;;;;;;;-2.96;54.82;95138.38;4940217;29;20035;-84
2022/03/02 04:13:27;;;;;;;5.80;2.90;;;;;;;-2.76;54.06;95134.47;4923238;29;20039;-84
2022/03/02 04:15:52;;;;;;;4.68;2.42;;;;;;;-2.82;53.42;95137.72;4939961;29;20042;-84
2022/03/02 04:18:18;;;;;;;4.20;2.05;;;;;;;-2.57;53.05;95117.13;4939838;29;20031;-84
2022/03/02 04:20:43;;;;;;;5.93;2.13;;;;;;;-2.59;52.45;95119.03;4938521;29;20051;-84
2022/03/02 04:23:09;;;;;;;7.97;2.20;;;;;;;-2.74;51.71;95116.38;4938760;29;20453;-84
2022/03/02 04:25:34;;;;;;;5.28;2.15;;;;;;;-2.79;51.96;95111.72;4940086;29;20445;-83
2022/03/02 04:28:00;;;;;;;3.85;1.75;;;;;;;-2.75;53.23;95104.50;4938882;29;20445;-84
2022/03/02 04:30:27;;;;;;;4.25;1.70;;;;;;;-2.62;51.42;95106.53;4938361;29;20035;-84
2022/03/02 04:32:53;;;;;;;4.65;1.98;;;;;;;-2.70;54.19;95099.66;4938916;29;20444;-84
2022/03/02 04:35:19;;;;;;;3.38;1.85;;;;;;;-2.64;51.83;95100.78;4938481;29;20039;-83
2022/03/02 04:37:44;;;;;;;4.15;1.90;;;;;;;-2.38;50.73;95102.28;4922662;29;20032;-84
2022/03/02 04:40:11;;;;;;;2.00;1.25;;;;;;;-1.91;49.83;95096.22;4938076;29;20352;-84
2022/03/02 04:42:37;;;;;;;4.13;2.13;;;;;;;-2.13;50.67;95105.50;4922668;29;20095;-84
2022/03/02 04:45:03;;;;;;;7.32;1.88;;;;;;;-2.27;51.69;95101.91;4938387;29;20266;-84
2022/03/02 04:47:29;;;;;;;3.78;1.90;;;;;;;-2.57;51.04;95101.72;4938503;29;20042;-84
2022/03/02 04:49:54;;;;;;;3.05;1.67;;;;;;;-2.61;50.90;95103.81;4938528;29;20039;-83
2022/03/02 04:52:22;;;;;;;5.07;2.45;;;;;;;-2.62;50.00;95101.41;4938346;29;20356;-84
2022/03/02 04:55:05;;;;;;;4.15;2.13;;;;;;;-2.56;50.03;95093.84;4922944;29;20046;-84
2022/03/02 04:57:36;;;;;;;5.35;2.13;;;;;;;-2.51;49.29;95097.66;4925061;29;20043;-83
2022/03/02 05:00:09;;;;;;;3.45;1.83;;;;;;;-2.28;49.08;95090.03;4936410;29;20127;-83
2022/03/02 05:02:34;;;;;;;3.47;1.70;;;;;;;-2.46;49.36;95097.97;4922628;29;20353;-83
2022/03/02 05:05:00;;;;;;;3.22;1.77;;;;;;;-2.40;49.65;95101.66;4938472;29;20043;-83
2022/03/02 05:07:25;;;;;;;3.85;1.85;;;;;;;-2.18;49.18;95100.88;4939440;29;20063;-83
2022/03/02 05:09:51;;;;;;;7.50;2.50;;;;;;;-2.16;49.23;95098.16;4937952;29;20354;-83
2022/03/02 05:12:16;;;;;;;3.35;1.85;;;;;;;-2.33;48.66;95089.72;4939560;29;20046;-83
2022/03/02 05:14:42;;;;;;;3.42;2.13;;;;;;;-2.28;49.78;95062.59;4938106;29;20035;-83
2022/03/02 05:17:08;;;;;;;5.85;2.20;;;;;;;-2.63;52.95;95046.75;4938326;29;20039;-83
2022/03/02 05:19:33;;;;;;;4.35;1.92;;;;;;;-2.94;52.84;95042.38;4950631;29;20373;-83
2022/03/02 05:21:59;;;;;;;3.45;1.80;;;;;;;-3.19;55.03;95057.84;4941039;29;20049;-84
2022/03/02 05:24:24;;;;;;;3.85;2.17;;;;;;;-3.49;53.78;95055.00;4973107;28;20445;-83
2022/03/02 05:26:49;;;;;;;3.97;2.30;;;;;;;-3.59;53.89;95054.38;4957447;29;20050;-84
2022/03/02 05:29:15;;;;;;;3.97;2.22;;;;;;;-3.51;53.45;95051.81;4958525;28;20356;-83
2022/03/02 05:31:40;;;;;;;3.97;2.08;;;;;;;-3.16;53.50;95046.44;4956861;29;20027;-83
2022/03/02 05:34:06;;;;;;;4.68;1.90;;;;;;;-2.97;52.46;95041.91;4957249;29;20039;-83
2022/03/02 05:36:32;;;;;;;5.00;2.03;;;;;;;-3.21;51.69;95051.25;4957271;29;20042;-83
2022/03/02 05:38:57;;;;;;;4.05;2.08;;;;;;;-3.17;52.09;95049.97;4958443;28;20035;-83
2022/03/02 05:41:23;;;;;;;10.07;1.90;;;;;;;-2.84;51.01;95052.44;4957122;29;20445;-83
2022/03/02 05:43:49;;;;;;;6.00;1.90;;;;;;;-2.80;50.15;95048.56;4973578;28;20039;-83
2022/03/02 05:46:15;;;;;;;6.18;1.88;;;;;;;-2.93;50.70;95061.94;4956876;29;20459;-83
2022/03/02 05:48:40;;;;;;;3.08;1.70;;;;;;;-2.80;49.14;95058.00;4957226;29;20125;-84
2022/03/02 05:51:06;;;;;;;3.08;1.83;;;;;;;-2.50;48.74;95056.44;4956739;28;20031;-84
2022/03/02 05:53:31;;;;;;;2.67;1.63;;;;;;;-2.35;48.05;95050.59;4941604;29;20047;-84
2022/03/02 05:55:57;;;;;;;5.05;1.60;;;;;;;-2.43;48.36;95051.44;4947705;29;20118;-83
2022/03/02 05:58:22;;;;;;;2.58;1.52;;;;;;;-2.53;48.25;95050.84;4945105;29;20200;-83
2022/03/02 06:00:48;;;;;;;6.70;2.60;;;;;;;-2.57;48.44;95053.75;4931102;29;20038;-82
2022/03/02 06:03:14;;;;;;;4.43;2.30;;;;;;;-2.49;48.41;95057.25;4941681;29;20071;-84
2022/03/02 06:05:40;;;;;;;4.97;2.22;;;;;;;-2.52;49.29;95055.81;4932516;29;20087;-84
2022/03/02 06:08:07;;;;;;;5.80;2.58;;;;;;;-2.88;52.59;95061.41;4937221;29;20050;-83
2022/03/02 06:10:34;;;;;;;7.30;2.17;;;;;;;-2.97;52.77;95054.72;4942006;29;20066;-83
2022/03/02 06:13:00;;;;;;;4.60;2.15;;;;;;;-3.01;54.39;95064.50;4951143;29;20043;-83
2022/03/02 06:15:25;;;;;;;3.90;1.73;;;;;;;-2.88;50.47;95063.97;4938573;29;20039;-83
2022/03/02 06:17:51;;;;;;;6.50;2.28;;;;;;;-2.80;52.63;95060.59;4953703;29;20036;-83
2022/03/02 06:20:17;;;;;;;4.95;2.00;;;;;;;-2.77;52.06;95062.84;4939382;29;20040;-83
2022/03/02 06:22:42;;;;;;;3.30;1.52;;;;;;;-2.64;52.46;95059.72;4941873;29;20035;-83
2022/03/02 06:25:09;;;;;;;5.63;1.70;;;;;;;-2.56;51.71;95065.63;4940794;29;20043;-83
2022/03/02 06:27:35;;;;;;;4.03;1.88;;;;;;;-2.40;50.76;95063.16;4941064;29;20044;-83
2022/03/02 06:30:00;;;;;;;3.58;1.90;;;;;;;-2.27;50.53;95055.69;4940658;29;20468;-83
2022/03/02 06:32:26;;;;;;;4.03;1.60;;;;;;;-2.35;50.65;95051.41;4942064;29;20043;-83
2022/03/02 06:34:51;;;;;;;2.55;1.60;;;;;;;-2.30;52.40;95048.31;4940623;29;20032;-83
2022/03/02 06:37:17;;;;;;;4.97;2.03;;;;;;;-2.17;54.02;95047.78;4941781;29;20031;-83
2022/03/02 06:39:42;;;;;;;3.53;2.03;;;;;;;-2.00;52.65;95049.25;4940468;29;20047;-83
2022/03/02 06:42:18;;;;;;;4.88;1.63;;;;;;;-2.02;53.54;95046.06;4940483;29;20047;-83
2022/03/02 06:44:56;;;;;;;5.80;2.60;;;;;;;-1.80;51.79;95045.41;4940834;29;20500;-83
2022/03/02 06:47:27;;;;;;;5.85;2.15;;;;;;;-1.66;54.08;95049.00;4940341;29;20038;-83
2022/03/02 06:50:10;;;;;;;9.18;2.65;;;;;;;-1.45;52.68;95045.75;4924296;29;20126;-83
2022/03/02 06:52:39;;;;;;;3.80;2.08;;;;;;;-1.44;54.17;95048.16;4940639;29;20087;-83
2022/03/02 06:55:10;;;;;;;4.40;2.28;;;;;;;-1.32;54.72;95043.38;4924624;29;20062;-83
2022/03/02 06:57:36;;;;;;;5.68;1.80;;;;;;;-1.24;53.91;95041.72;4940290;29;20073;-84
2022/03/02 07:00:16;;;;;;;5.57;2.22;;;;;;;-1.17;52.99;95045.16;4940358;29;20326;-84
2022/03/02 07:02:51;;;;;;;4.30;2.30;;;;;;;-1.27;57.12;95047.22;4924280;29;20074;-83
2022/03/02 07:05:17;;;;;;;3.08;1.70;;;;;;;-1.19;57.04;95042.78;4940415;29;20373;-83
2022/03/02 07:07:44;;;;;;;5.72;1.90;;;;;;;-1.22;56.75;95040.56;4940071;29;20429;-83
2022/03/02 07:10:10;;;;;;;3.50;1.90;;;;;;;-1.20;56.33;95045.53;4939941;29;20078;-83
2022/03/02 07:12:36;;;;;;;6.07;2.38;;;;;;;-1.00;56.10;95041.47;4940253;29;20457;-83
2022/03/02 07:15:04;;;;;;;5.53;2.25;;;;;;;-0.76;55.19;95043.94;4939940;29;20044;-83
2022/03/02 07:17:32;;;;;;;4.10;1.90;;;;;;;-0.94;55.18;95044.28;4940262;29;20063;-83
2022/03/02 07:19:58;;;;;;;6.28;2.00;;;;;;;-0.86;53.22;95050.16;4940074;29;20098;-83
2022/03/02 07:22:33;;;;;;;5.57;2.45;;;;;;;-0.76;51.14;95043.94;4939919;29;20360;-83
2022/03/02 07:25:03;;;;;;;5.47;2.30;;;;;;;-0.68;56.91;95048.19;4939838;29;20074;-83
2022/03/02 07:27:29;;;;;;;7.10;2.88;;;;;;;-0.51;55.17;95047.00;4924239;29;20035;-83
2022/03/02 07:29:55;;;;;;;5.47;2.60;;;;;;;-0.53;55.82;95040.41;4939468;29;20182;-83
2022/03/02 07:32:29;;;;;;;7.38;2.90;;;;;;;-0.49;57.28;95054.56;4939597;29;20360;-83
2022/03/02 07:34:58;;;;;;;5.75;2.65;;;;;;;-0.44;58.02;95047.84;4939862;29;20110;-83
2022/03/02 07:37:24;;;;;;;4.50;2.08;;;;;;;-0.47;58.11;95047.44;4923940;29;20053;-83
2022/03/02 07:39:50;;;;;;;5.35;2.40;;;;;;;-0.26;53.23;95043.28;4939319;29;20156;-83
2022/03/02 07:42:15;;;;;;;6.30;2.63;;;;;;;-0.02;53.75;95042.94;4939366;29;20122;-83
2022/03/02 07:44:41;;;;;;;5.07;2.20;;;;;;;0.01;51.93;95041.78;4939639;29;20045;-83
2022/03/02 07:47:08;;;;;;;5.07;2.33;;;;;;;-0.01;52.94;95046.31;4939382;29;20459;-83
2022/03/02 07:49:35;;;;;;;5.15;1.92;;;;;;;0.18;52.64;95042.31;4939313;29;20084;-83
2022/03/02 07:52:02;;;;;;;5.72;2.38;;;;;;;0.12;51.54;95041.28;4939402;29;20414;-83
2022/03/02 07:54:29;;;;;;;4.18;2.40;;;;;;;0.09;52.74;95041.66;4939414;29;20057;-83
2022/03/02 07:56:55;;;;;;;4.35;2.33;;;;;;;0.17;53.39;95047.69;4940287;29;20126;-83
2022/03/02 07:59:21;;;;;;;5.13;2.42;;;;;;;0.25;54.19;95044.97;4939396;29;20114;-83
2022/03/02 08:01:47;;;;;;;6.10;2.33;;;;;;;0.44;53.59;95053.06;4939244;29;20036;-83
2022/03/02 08:04:14;;;;;;;3.90;2.05;;;;;;;0.42;52.07;95051.44;4939022;29;20078;-83
2022/03/02 08:06:41;;;;;;;4.07;2.60;;;;;;;0.58;51.82;95046.22;4940381;29;20054;-83
2022/03/02 08:09:08;;;;;;;5.60;2.28;;;;;;;0.52;53.04;95050.34;4938914;29;20397;-83
2022/03/02 08:11:37;;;;;;;9.60;2.75;;;;;;;0.68;52.71;95049.28;4939089;29;20446;-83
2022/03/02 08:14:03;;;;;;;4.75;2.30;;;;;;;0.67;51.52;95040.72;4939471;29;20031;-83
2022/03/02 08:16:30;;;;;;;6.60;2.97;;;;;;;0.69;56.15;95041.31;4938765;29;20032;-83
2022/03/02 08:19:04;;;;;;;4.10;2.50;;;;;;;0.73;56.42;95040.97;4938927;29;20035;-83
2022/03/02 08:21:32;;;;;;;3.58;1.90;;;;;;;0.72;56.44;95036.78;4938666;29;20465;-83
2022/03/02 08:23:59;;;;;;;5.47;2.20;;;;;;;0.81;56.50;95038.22;4938778;29;20333;-83
2022/03/02 08:26:26;;;;;;;6.20;2.30;;;;;;;0.79;55.97;95045.38;4923087;29;20034;-83
2022/03/02 08:28:55;;;;;;;6.10;2.63;;;;;;;0.82;53.24;95039.81;4923011;29;20357;-83
2022/03/02 08:31:23;;;;;;;6.93;2.75;;;;;;;1.04;54.59;95037.97;4938444;29;20453;-83
2022/03/02 08:33:49;;;;;;;6.00;2.72;;;;;;;1.00;56.47;95039.34;4939907;29;20071;-83
2022/03/02 08:36:15;;;;;;;4.40;2.05;;;;;;;1.17;56.67;95039.84;4939928;29;20047;-83
2022/03/02 08:38:42;;;;;;;8.07;3.17;;;;;;;1.28;55.36;95041.06;4938728;29;20039;-83
2022/03/02 08:41:11;;;;;;;8.40;3.00;;;;;;;1.48;54.21;95035.19;4954463;29;20042;-83
2022/03/02 08:43:36;;;;;;;8.07;3.00;;;;;;;1.53;54.54;95043.94;4938679;29;20110;-83
2022/03/02 08:46:03;;;;;;;8.68;3.55;;;;;;;1.79;55.66;95039.84;4938712;29;20066;-83
2022/03/02 08:48:29;;;;;;;8.98;2.97;;;;;;;1.84;55.97;95037.47;4938411;29;20504;-83
2022/03/02 08:50:57;;;;;;;8.00;3.03;;;;;;;1.87;53.34;95035.50;4938225;29;20123;-83
2022/03/02 08:53:24;;;;;;;10.02;3.78;;;;;;;1.97;53.78;95030.75;4938341;29;20035;-83
2022/03/02 08:55:51;;;;;;;6.88;3.70;;;;;;;2.18;52.42;95032.34;4938342;29;20035;-83
2022/03/02 08:58:16;;;;;;;8.63;4.10;;;;;;;2.28;52.78;95026.78;4938560;29;20441;-83
2022/03/02 09:00:42;;;;;;;10.38;3.95;;;;;;;2.43;53.22;95023.22;4938359;29;20035;-83
2022/03/02 09:03:09;;;;;;;8.95;4.13;;;;;;;2.61;52.61;95023.41;4938180;29;20058;-83
2022/03/02 09:05:35;;;;;;;12.95;5.10;;;;;;;2.61;52.72;95027.78;4938164;29;20042;-83
2022/03/02 09:08:00;;;;;;;9.85;5.13;;;;;;;2.57;52.99;95019.63;4938229;29;20425;-83
2022/03/02 09:10:26;;;;;;;11.30;4.50;;;;;;;2.75;53.67;95021.59;4938330;29;20035;-83
2022/03/02 09:12:52;;;;;;;8.50;4.32;;;;;;;2.84;52.56;95019.59;4938074;29;20051;-83
2022/03/02 09:15:18;;;;;;;10.55;4.28;;;;;;;2.85;52.85;95020.41;4938406;29;20106;-83
2022/03/02 09:17:43;;;;;;;8.32;4.18;;;;;;;3.02;54.70;95016.38;4938117;29;20027;-83
2022/03/02 09:20:10;;;;;;;8.30;4.45;;;;;;;3.01;50.78;95013.97;4937938;29;20035;-83
2022/03/02 09:22:37;;;;;;;8.45;4.03;;;;;;;3.01;51.43;95019.16;4938266;29;20036;-83
2022/03/02 09:25:06;;;;;;;10.38;4.97;;;;;;;3.03;52.00;95014.59;4939138;29;20031;-84
2022/03/02 09:27:32;;;;;;;8.23;3.95;;;;;;;3.13;54.04;95009.75;4926369;29;20027;-83
2022/03/02 09:29:59;;;;;;;7.68;4.32;;;;;;;3.22;51.60;95016.31;4942040;29;20032;-83
2022/03/02 09:32:25;;;;;;;9.05;4.50;;;;;;;3.24;48.23;95008.34;4941761;29;20023;-84
2022/03/02 09:34:55;;;;;;;9.48;3.95;;;;;;;3.51;51.50;95003.84;4941933;29;20035;-83
2022/03/02 09:37:23;;;;;;;13.20;4.43;;;;;;;3.30;48.34;95004.94;4941758;29;20030;-84
2022/03/02 09:39:49;;;;;;;10.15;4.28;;;;;;;3.50;49.45;94999.66;4942708;29;20027;-83
2022/03/02 09:42:21;;;;;;;8.25;4.45;;;;;;;3.47;50.32;95002.69;4941862;29;20552;-83
2022/03/02 09:44:49;;;;;;;8.13;3.65;;;;;;;3.42;49.22;95006.88;4941622;29;20350;-84
2022/03/02 09:47:18;;;;;;;9.32;3.50;;;;;;;3.68;47.73;94999.00;4941815;29;20063;-83
2022/03/02 09:49:49;;;;;;;7.70;3.65;;;;;;;3.66;48.09;94995.00;4942611;29;20031;-84
2022/03/02 09:52:21;;;;;;;7.65;4.10;;;;;;;3.85;47.96;94987.31;4941739;29;20027;-84
2022/03/02 09:54:52;;;;;;;7.13;3.88;;;;;;;3.87;48.66;94985.31;4926178;29;20381;-83
2022/03/02 09:57:19;;;;;;;6.40;3.47;;;;;;;4.21;47.13;94989.25;4941636;29;20493;-83
2022/03/02 09:59:55;;;;;;;9.35;3.80;;;;;;;3.86;45.97;94979.34;4941484;29;20046;-84
2022/03/02 10:02:35;;;;;;;7.47;4.13;;;;;;;4.04;48.07;94983.81;4942715;29;20038;-83
2022/03/02 10:05:05;;;;;;;6.82;3.70;;;;;;;4.02;42.14;94978.03;4942432;29;20070;-83
2022/03/02 10:07:35;;;;;;;8.32;3.97;;;;;;;4.18;45.63;94981.91;4925528;29;20051;-84
2022/03/02 10:10:13;;;;;;;10.30;3.95;;;;;;;4.18;46.08;94974.13;4941007;29;20441;-83
2022/03/02 10:12:39;;;;;;;6.68;3.45;;;;;;;4.07;41.35;94964.44;4941170;29;20409;-83
2022/03/02 10:15:12;;;;;;;7.50;3.50;;;;;;;4.35;42.49;94961.41;4942274;29;20037;-83
2022/03/02 10:17:40;;;;;;;4.95;2.85;;;;;;;4.43;40.83;94959.56;4941082;29;20036;-84
2022/03/02 10:20:16;;;;;;;6.57;3.35;;;;;;;4.47;40.97;94952.94;4942242;29;20031;-83
2022/03/02 10:23:14;;;;;;;6.35;3.17;;;;;;;4.80;39.30;94949.22;4942325;29;20338;-83
2022/03/02 10:25:46;;;;;;;8.07;4.07;;;;;;;4.60;38.65;94947.63;4942107;29;20028;-83
2022/03/02 10:28:16;;;;;;;6.60;3.63;;;;;;;4.69;41.08;94944.75;4941052;29;20031;-83
2022/03/02 10:30:42;;;;;;;6.38;3.33;;;;;;;4.82;39.40;94949.78;4940636;29;20460;-83
2022/03/02 10:33:22;;;;;;;6.68;3.65;;;;;;;4.80;40.38;94949.22;4940685;29;20394;-84
2022/03/02 10:35:51;;;;;;;6.85;3.35;;;;;;;4.90;42.70;94936.53;4925075;29;20443;-84
2022/03/02 10:38:27;;;;;;;7.18;3.58;;;;;;;5.11;41.35;94936.31;4940924;29;20030;-83
2022/03/02 10:40:53;;;;;;;7.50;3.22;;;;;;;5.28;43.62;94934.69;4924903;29;20163;-84
2022/03/02 10:43:21;;;;;;;5.85;3.42;;;;;;;5.12;39.45;94925.69;4940521;29;20046;-83
2022/03/02 10:45:51;;;;;;;6.53;3.67;;;;;;;5.05;40.95;94925.75;4924778;29;20036;-84
2022/03/02 10:48:47;;;;;;;6.70;2.78;;;;;;;5.28;40.15;94915.69;4925341;29;20492;-84
2022/03/02 10:51:14;;;;;;;4.75;2.67;;;;;;;5.15;36.71;94922.66;4939297;29;20476;-84
2022/03/02 10:53:40;;;;;;;5.35;2.70;;;;;;;5.38;40.33;94916.78;4940692;29;20035;-84
2022/03/02 10:56:08;;;;;;;10.32;3.17;;;;;;;5.53;36.49;94913.00;4940338;29;20083;-84
2022/03/02 10:58:34;;;;;;;6.40;3.47;;;;;;;5.72;39.22;94913.69;4941654;29;20118;-83
2022/03/02 11:01:00;;;;;;;7.22;4.32;;;;;;;5.93;39.76;94914.97;4940067;29;20027;-83
2022/03/02 11:03:34;;;;;;;5.82;3.45;;;;;;;5.88;39.57;94908.84;4940138;29;20042;-84
2022/03/02 11:06:01;;;;;;;6.85;3.60;;;;;;;5.82;35.77;94907.97;4941610;29;20031;-84
2022/03/02 11:08:30;;;;;;;6.10;3.17;;;;;;;5.85;35.58;94904.09;4941299;29;20054;-83
2022/03/02 11:10:56;;;;;;;5.75;3.28;;;;;;;5.94;32.27;94893.16;4940980;29;20357;-84
2022/03/02 11:13:23;;;;;;;7.10;3.15;;;;;;;5.98;35.10;94892.72;4940039;29;20032;-84
2022/03/02 11:15:49;;;;;;;8.63;3.58;;;;;;;6.32;35.83;94888.59;4941141;29;20063;-84
2022/03/02 11:18:19;;;;;;;7.13;3.40;;;;;;;6.50;34.03;94886.88;4941093;29;20032;-84
2022/03/02 11:20:59;;;;;;;5.93;3.00;;;;;;;6.39;35.35;94874.66;4939811;29;20097;-84
2022/03/02 11:23:24;;;;;;;6.95;3.40;;;;;;;6.45;36.21;94873.72;4940863;29;20031;-84
2022/03/02 11:25:54;;;;;;;6.63;3.40;;;;;;;6.25;34.57;94867.06;4939783;29;20039;-84
2022/03/02 11:28:22;;;;;;;6.35;3.13;;;;;;;6.40;36.21;94858.81;4939779;29;20031;-84
2022/03/02 11:30:56;;;;;;;6.75;3.78;;;;;;;6.70;39.79;94859.66;4939416;29;20091;-84
2022/03/02 11:33:24;;;;;;;10.27;3.88;;;;;;;6.53;34.57;94844.75;4924549;29;20036;-84
2022/03/02 11:35:51;;;;;;;7.65;3.70;;;;;;;6.58;35.91;94844.84;4920818;29;20036;-84